Time;durP1;ratioP1;P1;durP2;ratioP2;P2;SDS_P1;SDS_P2;PMS_P1;PMS_P2;Temp;Humidity;BMP_temperature;BMP_pressure;BME280_temperature;BME280_humidity;BME280_pressure;Samples;Min_cycle;Max_cycle;Signal;HPM_P1;HPM_P2
2022/06/05 00:00:43;;;;;;;;;;;;;;;;;;6195234;23;20114;-88
2022/06/05 00:03:20;;;;;;;;;;;;;;;;;;6173418;23;20264;-88
2022/06/05 00:05:46;;;;;;;;;;;;;;;;;;6173587;23;19951;-88
2022/06/05 00:08:13;;;;;;;;;;;;;;;;;;6177360;23;19916;-88
2022/06/05 00:10:43;;;;;;;;;;;;;;;;;;6200685;23;20063;-88
2022/06/05 00:13:10;;;;;;;;;;;;;;;;;;6174067;23;19987;-89
2022/06/05 00:15:38;;;;;;;;;;;;;;;;;;6197353;22;20331;-88
2022/06/05 00:18:05;;;;;;;;;;;;;;;;;;6238923;22;20484;-88
2022/06/05 00:20:31;;;;;;;;;;;;;;;;;;6208821;22;19916;-88
2022/06/05 00:23:18;;;;;;;;;;;;;;;;;;6263194;22;19950;-88
2022/06/05 00:25:49;;;;;;;;;;;;;;;;;;6237114;22;19923;-88
2022/06/05 00:28:29;;;;;;;;;;;;;;;;;;6262528;22;19919;-88
2022/06/05 00:30:57;;;;;;;;;;;;;;;;;;6264223;22;20330;-88
2022/06/05 00:33:27;;;;;;;;;;;;;;;;;;6262482;22;19919;-88
2022/06/05 00:35:57;;;;;;;;;;;;;;;;;;6264449;22;19919;-88
2022/06/05 00:38:24;;;;;;;;;;;;;;;;;;6235121;22;19926;-89
2022/06/05 00:40:52;;;;;;;;;;;;;;;;;;6262881;22;19985;-88
2022/06/05 00:43:19;;;;;;;;;;;;;;;;;;6236230;22;20418;-88
2022/06/05 00:45:45;;;;;;;;;;;;;;;;;;6233657;22;19923;-88
2022/06/05 00:48:12;;;;;;;;;;;;;;;;;;6211163;22;19916;-88
2022/06/05 00:50:48;;;;;;;;;;;;;;;;;;6207968;22;19919;-87
2022/06/05 00:53:15;;;;;;;;;;;;;;;;;;6212380;22;19915;-88
2022/06/05 00:55:42;;;;;;;;;;;;;;;;;;6232722;22;19919;-89
2022/06/05 00:58:09;;;;;;;;;;;;;;;;;;6262913;22;19942;-88
2022/06/05 01:00:35;;;;;;;;;;;;;;;;;;6209669;22;19919;-88
2022/06/05 01:03:01;;;;;;;;;;;;;;;;;;6206982;23;20006;-88
2022/06/05 01:05:27;;;;;;;;;;;;;;;;;;6203840;23;19919;-89
2022/06/05 01:08:08;;;;;;;;;;;;;;;;;;6200185;23;19973;-88
2022/06/05 01:10:35;;;;;;;;;;;;;;;;;;6147767;23;20318;-88
2022/06/05 01:13:01;;;;;;;;;;;;;;;;;;6198460;23;19952;-88
2022/06/05 01:15:28;;;;;;;;;;;;;;;;;;6146413;23;19963;-89
2022/06/05 01:17:56;;;;;;;;;;;;;;;;;;6174097;23;20070;-89
2022/06/05 01:20:23;;;;;;;;;;;;;;;;;;6200030;23;20298;-88
2022/06/05 01:22:52;;;;;;;;;;;;;;;;;;6149413;23;20253;-89
2022/06/05 01:25:19;;;;;;;;;;;;;;;;;;6148302;23;20351;-89
2022/06/05 01:27:46;;;;;;;;;;;;;;;;;;6170013;23;19927;-88
2022/06/05 01:30:12;;;;;;;;;;;;;;;;;;6200513;23;20261;-88
2022/06/05 01:32:39;;;;;;;;;;;;;;;;;;6196474;23;19931;-88
2022/06/05 01:35:08;;;;;;;;;;;;;;;;;;6174556;23;19924;-89
2022/06/05 01:37:36;;;;;;;;;;;;;;;;;;6146362;23;20783;-88
2022/06/05 01:40:02;;;;;;;;;;;;;;;;;;6227401;23;19923;-88
2022/06/05 01:42:29;;;;;;;;;;;;;;;;;;6203917;23;20489;-88
2022/06/05 01:44:57;;;;;;;;;;;;;;;;;;6232641;23;20359;-89
2022/06/05 01:47:24;;;;;;;;;;;;;;;;;;6227523;23;19923;-88
2022/06/05 01:49:50;;;;;;;;;;;;;;;;;;6206421;23;19961;-89
2022/06/05 01:52:19;;;;;;;;;;;;;;;;;;6206760;23;19926;-89
2022/06/05 01:54:46;;;;;;;;;;;;;;;;;;6176622;23;20346;-89
2022/06/05 01:57:13;;;;;;;;;;;;;;;;;;6180692;23;19927;-88
2022/06/05 01:59:41;;;;;;;;;;;;;;;;;;6178851;23;19935;-89
2022/06/05 02:02:08;;;;;;;;;;;;;;;;;;6190994;23;19970;-88
2022/06/05 02:04:35;;;;;;;;;;;;;;;;;;6174922;23;19923;-89
2022/06/05 02:07:03;;;;;;;;;;;;;;;;;;6202541;23;20041;-88
2022/06/05 02:09:30;;;;;;;;;;;;;;;;;;6198429;23;19974;-89
2022/06/05 02:11:57;;;;;;;;;;;;;;;;;;6177075;23;20288;-89
2022/06/05 02:14:24;;;;;;;;;;;;;;;;;;6171898;23;19994;-88
2022/06/05 02:16:51;;;;;;;;;;;;;;;;;;6200063;23;19958;-88
2022/06/05 02:19:18;;;;;;;;;;;;;;;;;;6200082;23;20341;-88
2022/06/05 02:21:44;;;;;;;;;;;;;;;;;;6197946;23;19923;-88
2022/06/05 02:24:17;;;;;;;;;;;;;;;;;;6201518;23;19919;-88
2022/06/05 02:26:45;;;;;;;;;;;;;;;;;;6199103;23;19919;-88
2022/06/05 02:29:11;;;;;;;;;;;;;;;;;;6175361;23;20411;-88
2022/06/05 02:31:38;;;;;;;;;;;;;;;;;;6172681;23;20714;-89
2022/06/05 02:34:04;;;;;;;;;;;;;;;;;;6175567;23;19946;-89
2022/06/05 02:36:33;;;;;;;;;;;;;;;;;;6197327;23;19974;-89
2022/06/05 02:39:00;;;;;;;;;;;;;;;;;;6201107;23;19924;-88
2022/06/05 02:41:29;;;;;;;;;;;;;;;;;;6174034;23;19916;-89
2022/06/05 02:46:43;;;;;;;;;;;;;;;;;;6195559;23;20013;-88
2022/06/05 02:49:10;;;;;;;;;;;;;;;;;;6148587;23;19924;-88
2022/06/05 02:51:37;;;;;;;;;;;;;;;;;;6146929;23;19915;-89
2022/06/05 02:54:05;;;;;;;;;;;;;;;;;;6196718;23;19931;-88
2022/06/05 02:56:32;;;;;;;;;;;;;;;;;;6169719;23;19916;-89
2022/06/05 02:58:58;;;;;;;;;;;;;;;;;;6148261;23;20292;-89
2022/06/05 03:04:25;;;;;;;;;;;;;;;;;;6230137;23;20106;-88
2022/06/05 03:06:50;;;;;;;;;;;;;;;;;;6205309;23;19923;-88
2022/06/05 03:09:18;;;;;;;;;;;;;;;;;;6177646;23;19919;-88
2022/06/05 03:11:44;;;;;;;;;;;;;;;;;;6227320;23;19930;-88
2022/06/05 03:14:10;;;;;;;;;;;;;;;;;;6202208;23;19924;-88
2022/06/05 03:16:53;;;;;;;;;;;;;;;;;;6190946;23;20200;-88
2022/06/05 03:19:20;;;;;;;;;;;;;;;;;;6203533;23;20386;-88
2022/06/05 03:21:53;;;;;;;;;;;;;;;;;;6205143;23;20027;-88
2022/06/05 03:24:19;;;;;;;;;;;;;;;;;;6177665;23;20701;-88
2022/06/05 03:26:51;;;;;;;;;;;;;;;;;;6206304;23;19979;-88
2022/06/05 03:29:18;;;;;;;;;;;;;;;;;;6204320;23;19978;-88
2022/06/05 03:31:44;;;;;;;;;;;;;;;;;;6175688;23;19953;-88
2022/06/05 03:34:10;;;;;;;;;;;;;;;;;;6205533;23;19930;-88
2022/06/05 03:36:36;;;;;;;;;;;;;;;;;;6175501;23;19927;-88
2022/06/05 03:39:04;;;;;;;;;;;;;;;;;;6203436;23;19919;-88
2022/06/05 03:41:31;;;;;;;;;;;;;;;;;;6225211;23;19968;-88
2022/06/05 03:43:58;;;;;;;;;;;;;;;;;;6202161;23;19927;-88
2022/06/05 03:46:25;;;;;;;;;;;;;;;;;;6200964;23;19923;-88
2022/06/05 03:48:52;;;;;;;;;;;;;;;;;;6203272;23;19957;-88
2022/06/05 03:51:20;;;;;;;;;;;;;;;;;;6230198;23;20582;-88
2022/06/05 03:53:47;;;;;;;;;;;;;;;;;;6203022;23;19931;-88
2022/06/05 03:56:13;;;;;;;;;;;;;;;;;;6232858;23;19915;-88
2022/06/05 03:58:41;;;;;;;;;;;;;;;;;;6226526;23;19920;-88
2022/06/05 04:01:08;;;;;;;;;;;;;;;;;;6230968;23;20348;-88
2022/06/05 04:03:43;;;;;;;;;;;;;;;;;;6229886;23;19919;-88
2022/06/05 04:06:10;;;;;;;;;;;;;;;;;;6207686;23;19921;-88
2022/06/05 04:08:36;;;;;;;;;;;;;;;;;;6231510;23;20333;-88
2022/06/05 04:11:09;;;;;;;;;;;;;;;;;;6229271;23;19922;-88
2022/06/05 04:13:36;;;;;;;;;;;;;;;;;;6228078;23;19977;-88
2022/06/05 04:16:02;;;;;;;;;;;;;;;;;;6203250;23;20372;-88
2022/06/05 04:18:32;;;;;;;;;;;;;;;;;;6231370;23;19920;-89
2022/06/05 04:20:58;;;;;;;;;;;;;;;;;;6204485;23;19919;-88
2022/06/05 04:23:31;;;;;;;;;;;;;;;;;;6227035;23;19925;-88
2022/06/05 04:25:59;;;;;;;;;;;;;;;;;;6203885;23;19919;-88
2022/06/05 04:28:25;;;;;;;;;;;;;;;;;;6202991;23;20014;-88
2022/06/05 04:30:52;;;;;;;;;;;;;;;;;;6232180;23;20394;-88
2022/06/05 04:33:18;;;;;;;;;;;;;;;;;;6204024;23;20652;-89
2022/06/05 04:35:46;;;;;;;;;;;;;;;;;;6226749;23;19926;-88
2022/06/05 04:38:14;;;;;;;;;;;;;;;;;;6230280;23;19970;-88
2022/06/05 04:40:45;;;;;;;;;;;;;;;;;;6227888;23;20377;-88
2022/06/05 04:43:16;;;;;;;;;;;;;;;;;;6228783;23;19926;-88
2022/06/05 04:45:43;;;;;;;;;;;;;;;;;;6227257;23;19919;-89
2022/06/05 04:48:17;;;;;;;;;;;;;;;;;;6230771;23;20359;-89
2022/06/05 04:50:44;;;;;;;;;;;;;;;;;;6228992;23;20791;-88
2022/06/05 04:53:11;;;;;;;;;;;;;;;;;;6205979;23;19919;-89
2022/06/05 04:55:39;;;;;;;;;;;;;;;;;;6228709;23;19923;-89
2022/06/05 04:58:07;;;;;;;;;;;;;;;;;;6231013;23;19927;-88
2022/06/05 05:00:36;;;;;;;;;;;;;;;;;;6230208;23;19942;-88
2022/06/05 05:03:05;;;;;;;;;;;;;;;;;;6232643;23;19998;-89
2022/06/05 05:05:31;;;;;;;;;;;;;;;;;;6180580;23;20009;-89
2022/06/05 05:07:58;;;;;;;;;;;;;;;;;;6238302;23;19973;-88
2022/06/05 05:10:26;;;;;;;;;;;;;;;;;;6177886;23;19924;-88
2022/06/05 05:13:08;;;;;;;;;;;;;;;;;;6233179;23;19927;-89
2022/06/05 05:15:46;;;;;;;;;;;;;;;;;;6204830;23;19939;-88
2022/06/05 05:18:13;;;;;;;;;;;;;;;;;;6182364;23;19927;-89
2022/06/05 05:20:39;;;;;;;;;;;;;;;;;;6202900;23;19935;-89
2022/06/05 05:23:07;;;;;;;;;;;;;;;;;;6180939;23;19958;-89
2022/06/05 05:25:48;;;;;;;;;;;;;;;;;;6232777;23;20002;-88
2022/06/05 05:28:15;;;;;;;;;;;;;;;;;;6207559;23;19950;-89
2022/06/05 05:30:42;;;;;;;;;;;;;;;;;;6201824;23;20230;-89
2022/06/05 05:33:09;;;;;;;;;;;;;;;;;;6212339;23;19916;-89
2022/06/05 05:35:36;;;;;;;;;;;;;;;;;;6204300;23;19931;-89
2022/06/05 05:38:03;;;;;;;;;;;;;;;;;;6231924;23;19986;-89
2022/06/05 05:43:18;;;;;;;;;;;;;;;;;;6234688;23;20358;-89
2022/06/05 05:45:45;;;;;;;;;;;;;;;;;;6234174;23;20333;-89
2022/06/05 05:48:12;;;;;;;;;;;;;;;;;;6208400;23;19916;-89
2022/06/05 05:50:40;;;;;;;;;;;;;;;;;;6207056;23;19981;-89
2022/06/05 05:53:07;;;;;;;;;;;;;;;;;;6234415;23;19919;-89
2022/06/05 05:55:33;;;;;;;;;;;;;;;;;;6228245;23;19930;-89
2022/06/05 05:58:01;;;;;;;;;;;;;;;;;;6229423;23;20438;-89
2022/06/05 06:00:26;;;;;;;;;;;;;;;;;;6229002;23;19925;-89
2022/06/05 06:02:55;;;;;;;;;;;;;;;;;;6236449;23;19965;-89
2022/06/05 06:05:23;;;;;;;;;;;;;;;;;;6209444;23;19919;-88
2022/06/05 06:07:52;;;;;;;;;;;;;;;;;;6234573;23;19947;-89
2022/06/05 06:10:18;;;;;;;;;;;;;;;;;;6204644;23;19926;-89
2022/06/05 06:12:44;;;;;;;;;;;;;;;;;;6205799;23;19923;-90
2022/06/05 06:15:12;;;;;;;;;;;;;;;;;;6229700;23;19945;-89
2022/06/05 06:17:43;;;;;;;;;;;;;;;;;;6203879;23;19946;-89
2022/06/05 06:20:12;;;;;;;;;;;;;;;;;;6204892;23;19920;-89
2022/06/05 06:22:41;;;;;;;;;;;;;;;;;;6228051;23;19920;-88
2022/06/05 06:25:08;;;;;;;;;;;;;;;;;;6229319;23;19935;-89
2022/06/05 06:27:36;;;;;;;;;;;;;;;;;;6203303;23;19942;-89
2022/06/05 06:30:01;;;;;;;;;;;;;;;;;;6205255;23;20014;-89
2022/06/05 06:32:29;;;;;;;;;;;;;;;;;;6203603;23;20005;-89
2022/06/05 06:34:56;;;;;;;;;;;;;;;;;;6181416;23;19962;-89
2022/06/05 06:37:22;;;;;;;;;;;;;;;;;;6179924;23;20329;-89
2022/06/05 06:39:48;;;;;;;;;;;;;;;;;;6229131;23;19929;-89
2022/06/05 06:42:14;;;;;;;;;;;;;;;;;;6205694;23;20101;-89
2022/06/05 06:44:41;;;;;;;;;;;;;;;;;;6201545;23;19919;-90
2022/06/05 06:47:08;;;;;;;;;;;;;;;;;;6205135;23;19920;-89
2022/06/05 06:49:35;;;;;;;;;;;;;;;;;;6201578;23;19920;-89
2022/06/05 06:52:08;;;;;;;;;;;;;;;;;;6205730;23;20362;-90
2022/06/05 06:54:39;;;;;;;;;;;;;;;;;;6203119;23;19927;-89
2022/06/05 06:57:06;;;;;;;;;;;;;;;;;;6179049;23;19927;-90
2022/06/05 06:59:39;;;;;;;;;;;;;;;;;;6200562;23;20968;-90
2022/06/05 07:02:06;;;;;;;;;;;;;;;;;;6197116;23;19924;-90
2022/06/05 07:04:34;;;;;;;;;;;;;;;;;;6198942;23;20298;-90
2022/06/05 07:07:00;;;;;;;;;;;;;;;;;;6152866;23;19919;-89
2022/06/05 07:09:27;;;;;;;;;;;;;;;;;;6196807;23;19927;-90
2022/06/05 07:11:54;;;;;;;;;;;;;;;;;;6175978;23;19920;-90
2022/06/05 07:14:25;;;;;;;;;;;;;;;;;;6176530;23;19924;-90
2022/06/05 07:16:51;;;;;;;;;;;;;;;;;;6200873;23;20023;-89
2022/06/05 07:19:18;;;;;;;;;;;;;;;;;;6175052;23;20309;-89
2022/06/05 07:21:44;;;;;;;;;;;;;;;;;;6197806;23;19924;-90
2022/06/05 07:24:11;;;;;;;;;;;;;;;;;;6200194;23;20344;-90
2022/06/05 07:26:39;;;;;;;;;;;;;;;;;;6149176;23;19993;-89
2022/06/05 07:29:06;;;;;;;;;;;;;;;;;;6174357;23;19930;-89
2022/06/05 07:31:32;;;;;;;;;;;;;;;;;;6173610;23;19942;-90
2022/06/05 07:34:16;;;;;;;;;;;;;;;;;;6168751;23;20447;-90
2022/06/05 07:36:44;;;;;;;;;;;;;;;;;;6173304;23;19919;-90
2022/06/05 07:39:10;;;;;;;;;;;;;;;;;;6177779;23;19926;-90
2022/06/05 07:41:37;;;;;;;;;;;;;;;;;;6147998;23;20683;-89
2022/06/05 07:44:04;;;;;;;;;;;;;;;;;;6150502;23;19916;-90
2022/06/05 07:46:31;;;;;;;;;;;;;;;;;;6171402;23;19970;-90
2022/06/05 07:48:58;;;;;;;;;;;;;;;;;;6149103;23;20248;-89
2022/06/05 07:56:56;;;;;;;;;;;;;;;;;;6201691;23;19926;-90
2022/06/05 07:59:22;;;;;;;;;;;;;;;;;;6198268;23;19923;-90
2022/06/05 08:01:49;;;;;;;;;;;;;;;;;;6181623;22;19924;-90
2022/06/05 08:04:21;;;;;;;;;;;;;;;;;;6236331;22;20472;-90
2022/06/05 08:06:48;;;;;;;;;;;;;;;;;;6236094;22;19919;-90
2022/06/05 08:09:14;;;;;;;;;;;;;;;;;;6261667;22;19994;-90
2022/06/05 08:11:45;;;;;;;;;;;;;;;;;;6207152;22;20616;-90
2022/06/05 08:14:21;;;;;;;;;;;;;;;;;;6263450;22;19923;-90
2022/06/05 08:16:53;;;;;;;;;;;;;;;;;;6260015;22;20472;-90
2022/06/05 08:19:22;;;;;;;;;;;;;;;;;;6259448;22;19915;-90
2022/06/05 08:21:51;;;;;;;;;;;;;;;;;;6234766;22;19920;-91
2022/06/05 08:24:18;;;;;;;;;;;;;;;;;;6236230;22;20004;-91
2022/06/05 08:26:44;;;;;;;;;;;;;;;;;;6235029;22;19927;-90
2022/06/05 08:29:10;;;;;;;;;;;;;;;;;;6237401;22;19941;-92
2022/06/05 08:31:37;;;;;;;;;;;;;;;;;;6259469;22;19919;-90
2022/06/05 08:34:03;;;;;;;;;;;;;;;;;;6212899;22;19923;-90
2022/06/05 08:36:30;;;;;;;;;;;;;;;;;;6261045;22;20004;-90
2022/06/05 08:41:56;;;;;;;;;;;;;;;;;;6244264;22;19982;-91
2022/06/05 08:44:33;;;;;;;;;;;;;;;;;;6241174;22;20011;-90
2022/06/05 08:47:01;;;;;;;;;;;;;;;;;;6240136;22;20392;-90
2022/06/05 08:49:31;;;;;;;;;;;;;;;;;;6237769;22;19919;-90
2022/06/05 08:52:00;;;;;;;;;;;;;;;;;;6237158;22;19919;-90
2022/06/05 08:54:27;;;;;;;;;;;;;;;;;;6209873;22;20005;-90
2022/06/05 08:57:03;;;;;;;;;;;;;;;;;;6262865;22;19923;-91
2022/06/05 08:59:50;;;;;;;;;;;;;;;;;;6241289;22;19918;-91
2022/06/05 09:02:19;;;;;;;;;;;;;;;;;;6207471;23;19920;-91
2022/06/05 09:04:46;;;;;;;;;;;;;;;;;;6230533;23;19969;-91
2022/06/05 09:07:13;;;;;;;;;;;;;;;;;;6233909;23;19986;-90
2022/06/05 09:09:41;;;;;;;;;;;;;;;;;;6229687;23;19920;-90
2022/06/05 09:12:07;;;;;;;;;;;;;;;;;;6183184;23;20005;-90
2022/06/05 09:14:33;;;;;;;;;;;;;;;;;;6204487;23;19924;-90
2022/06/05 09:16:59;;;;;;;;;;;;;;;;;;6206435;23;20221;-91
2022/06/05 09:19:32;;;;;;;;;;;;;;;;;;6204544;23;19981;-92
2022/06/05 09:21:59;;;;;;;;;;;;;;;;;;6230853;23;20588;-91
2022/06/05 09:24:50;;;;;;;;;;;;;;;;;;6229282;23;19994;-91
2022/06/05 09:27:32;;;;;;;;;;;;;;;;;;6210691;23;20346;-90
2022/06/05 09:30:00;;;;;;;;;;;;;;;;;;6205254;23;19926;-91
2022/06/05 09:32:27;;;;;;;;;;;;;;;;;;6202792;23;19920;-90
2022/06/05 09:34:54;;;;;;;;;;;;;;;;;;6230171;23;19923;-91
2022/06/05 09:37:23;;;;;;;;;;;;;;;;;;6233041;23;20399;-91
2022/06/05 09:39:50;;;;;;;;;;;;;;;;;;6207236;23;19915;-91
2022/06/05 09:42:17;;;;;;;;;;;;;;;;;;6233396;23;20386;-91
2022/06/05 09:44:43;;;;;;;;;;;;;;;;;;6229995;23;19926;-91
2022/06/05 09:47:19;;;;;;;;;;;;;;;;;;6232566;23;19935;-90
2022/06/05 09:49:48;;;;;;;;;;;;;;;;;;6203833;23;19915;-91
2022/06/05 09:52:20;;;;;;;;;;;;;;;;;;6232338;23;19954;-90
2022/06/05 09:54:50;;;;;;;;;;;;;;;;;;6225841;23;19961;-91
2022/06/05 10:00:25;;;;;;;;;;;;;;;;;;6202346;23;19927;-92
2022/06/05 10:02:51;;;;;;;;;;;;;;;;;;6203861;23;19924;-92
2022/06/05 10:05:32;;;;;;;;;;;;;;;;;;6228056;23;19920;-92
2022/06/05 10:08:04;;;;;;;;;;;;;;;;;;6204182;23;20000;-92
2022/06/05 10:10:32;;;;;;;;;;;;;;;;;;6198732;23;19920;-92
2022/06/05 10:13:06;;;;;;;;;;;;;;;;;;6206511;23;20080;-92
2022/06/05 10:15:34;;;;;;;;;;;;;;;;;;6203026;23;19923;-91
2022/06/05 10:18:01;;;;;;;;;;;;;;;;;;6179983;23;20312;-92
2022/06/05 10:20:34;;;;;;;;;;;;;;;;;;6203378;23;19919;-91
2022/06/05 10:23:04;;;;;;;;;;;;;;;;;;6202609;23;20446;-92
2022/06/05 10:25:37;;;;;;;;;;;;;;;;;;6198172;23;19920;-91
2022/06/05 10:28:05;;;;;;;;;;;;;;;;;;6203258;23;19926;-91
2022/06/05 10:30:33;;;;;;;;;;;;;;;;;;6197980;23;20532;-92
2022/06/05 10:33:01;;;;;;;;;;;;;;;;;;6201644;23;19920;-92
2022/06/05 10:35:46;;;;;;;;;;;;;;;;;;6203587;23;20765;-92
2022/06/05 10:38:13;;;;;;;;;;;;;;;;;;6202160;23;19920;-92
2022/06/05 10:40:40;;;;;;;;;;;;;;;;;;6176049;23;19939;-92
2022/06/05 10:43:08;;;;;;;;;;;;;;;;;;6207429;23;20236;-94
2022/06/05 10:45:40;;;;;;;;;;;;;;;;;;6232627;23;19945;-92
2022/06/05 10:48:15;;;;;;;;;;;;;;;;;;6232355;23;19919;-92
2022/06/05 10:50:42;;;;;;;;;;;;;;;;;;6203186;23;19926;-92
2022/06/05 10:53:19;;;;;;;;;;;;;;;;;;6232598;23;19919;-92
2022/06/05 10:56:12;;;;;;;;;;;;;;;;;;6211298;23;19970;-92
2022/06/05 10:58:42;;;;;;;;;;;;;;;;;;6228105;23;19919;-92
2022/06/05 11:01:15;;;;;;;;;;;;;;;;;;6230234;23;19943;-92
2022/06/05 11:03:42;;;;;;;;;;;;;;;;;;6226818;23;19919;-92
2022/06/05 11:06:29;;;;;;;;;;;;;;;;;;6202460;23;19925;-92
2022/06/05 11:08:56;;;;;;;;;;;;;;;;;;6178410;23;19919;-91
2022/06/05 11:14:13;;;;;;;;;;;;;;;;;;6204366;23;20019;-92
2022/06/05 11:16:59;;;;;;;;;;;;;;;;;;6240895;23;19915;-92
2022/06/05 11:19:25;;;;;;;;;;;;;;;;;;6175824;23;19943;-93
2022/06/05 11:22:06;;;;;;;;;;;;;;;;;;6167433;23;20365;-91
2022/06/05 11:24:33;;;;;;;;;;;;;;;;;;6167489;23;19942;-92
2022/06/05 11:27:03;;;;;;;;;;;;;;;;;;6167886;23;19952;-92
2022/06/05 11:29:29;;;;;;;;;;;;;;;;;;6163583;23;19952;-91
2022/06/05 11:31:56;;;;;;;;;;;;;;;;;;6169400;23;19931;-91
2022/06/05 11:34:23;;;;;;;;;;;;;;;;;;6142019;23;19924;-91
2022/06/05 11:36:49;;;;;;;;;;;;;;;;;;6144377;23;19920;-92
2022/06/05 11:39:36;;;;;;;;;;;;;;;;;;6166660;23;19939;-91
2022/06/05 11:42:02;;;;;;;;;;;;;;;;;;6143503;23;19974;-92
2022/06/05 11:44:46;;;;;;;;;;;;;;;;;;6166643;23;19948;-92
2022/06/05 11:47:14;;;;;;;;;;;;;;;;;;6145309;23;20252;-91
2022/06/05 11:49:42;;;;;;;;;;;;;;;;;;6167722;23;19920;-91
2022/06/05 11:52:09;;;;;;;;;;;;;;;;;;6175935;23;20122;-91
2022/06/05 11:54:35;;;;;;;;;;;;;;;;;;6227455;23;20319;-90
2022/06/05 11:57:02;;;;;;;;;;;;;;;;;;6218057;23;19954;-92
2022/06/05 11:59:30;;;;;;;;;;;;;;;;;;6231204;23;19915;-91
2022/06/05 12:01:57;;;;;;;;;;;;;;;;;;6213570;22;19927;-92
2022/06/05 12:04:24;;;;;;;;;;;;;;;;;;6237472;22;19950;-92
2022/06/05 12:06:51;;;;;;;;;;;;;;;;;;6239613;22;19994;-92
2022/06/05 12:09:18;;;;;;;;;;;;;;;;;;6238388;22;19942;-92
2022/06/05 12:11:45;;;;;;;;;;;;;;;;;;6211319;22;19916;-91
2022/06/05 12:14:11;;;;;;;;;;;;;;;;;;6237436;22;19923;-91
2022/06/05 12:16:38;;;;;;;;;;;;;;;;;;6262354;22;19982;-91
2022/06/05 12:19:06;;;;;;;;;;;;;;;;;;6240856;22;20406;-91
2022/06/05 12:21:33;;;;;;;;;;;;;;;;;;6210941;22;20322;-91
2022/06/05 12:24:00;;;;;;;;;;;;;;;;;;6238703;22;19965;-91
2022/06/05 12:26:30;;;;;;;;;;;;;;;;;;6265106;22;19915;-91
2022/06/05 12:28:58;;;;;;;;;;;;;;;;;;6213548;22;20288;-91
2022/06/05 12:31:40;;;;;;;;;;;;;;;;;;6210528;22;19919;-91
2022/06/05 12:34:08;;;;;;;;;;;;;;;;;;6212963;22;19989;-91
2022/06/05 12:36:35;;;;;;;;;;;;;;;;;;6212787;22;19958;-91
2022/06/05 12:39:02;;;;;;;;;;;;;;;;;;6239075;22;19998;-91
2022/06/05 12:41:44;;;;;;;;;;;;;;;;;;6263762;22;19950;-91
2022/06/05 12:44:10;;;;;;;;;;;;;;;;;;6240345;22;19973;-91
2022/06/05 12:46:38;;;;;;;;;;;;;;;;;;6211493;22;19994;-91
2022/06/05 12:49:09;;;;;;;;;;;;;;;;;;6265591;22;19915;-91
2022/06/05 12:51:42;;;;;;;;;;;;;;;;;;6264707;22;20344;-91
2022/06/05 12:54:28;;;;;;;;;;;;;;;;;;6239570;22;19926;-92
2022/06/05 12:56:55;;;;;;;;;;;;;;;;;;6214380;22;19982;-91
2022/06/05 12:59:22;;;;;;;;;;;;;;;;;;6242554;22;20305;-91
2022/06/05 13:01:48;;;;;;;;;;;;;;;;;;6241336;22;19922;-91
2022/06/05 13:04:14;;;;;;;;;;;;;;;;;;6257095;22;19949;-91
2022/06/05 13:06:41;;;;;;;;;;;;;;;;;;6239787;22;20332;-92
2022/06/05 13:09:08;;;;;;;;;;;;;;;;;;6241573;22;19919;-91
2022/06/05 13:11:35;;;;;;;;;;;;;;;;;;6238877;22;19923;-90
2022/06/05 13:14:07;;;;;;;;;;;;;;;;;;6270154;22;20291;-91
2022/06/05 13:16:43;;;;;;;;;;;;;;;;;;6268268;22;19919;-92
2022/06/05 13:19:17;;;;;;;;;;;;;;;;;;6269739;22;20057;-92
2022/06/05 13:21:50;;;;;;;;;;;;;;;;;;6243089;22;20352;-92
2022/06/05 13:24:20;;;;;;;;;;;;;;;;;;6244524;22;19915;-92
2022/06/05 13:26:53;;;;;;;;;;;;;;;;;;6215358;22;19922;-92
2022/06/05 13:29:20;;;;;;;;;;;;;;;;;;6242204;22;20466;-92
2022/06/05 13:31:47;;;;;;;;;;;;;;;;;;6238499;22;19976;-92
2022/06/05 13:34:19;;;;;;;;;;;;;;;;;;6242336;22;19923;-91
2022/06/05 13:36:45;;;;;;;;;;;;;;;;;;6240397;22;19923;-92
2022/06/05 13:39:22;;;;;;;;;;;;;;;;;;6268339;22;19923;-92
2022/06/05 13:41:58;;;;;;;;;;;;;;;;;;6216586;22;19915;-92
2022/06/05 13:44:42;;;;;;;;;;;;;;;;;;6275600;22;19922;-92
2022/06/05 13:47:12;;;;;;;;;;;;;;;;;;6218084;22;19933;-92
2022/06/05 13:49:40;;;;;;;;;;;;;;;;;;6239224;22;19946;-92
2022/06/05 13:52:17;;;;;;;;;;;;;;;;;;6269416;22;19927;-92
2022/06/05 13:54:44;;;;;;;;;;;;;;;;;;6239408;22;19930;-91
2022/06/05 13:57:12;;;;;;;;;;;;;;;;;;6269411;22;19922;-92
2022/06/05 13:59:39;;;;;;;;;;;;;;;;;;6215375;22;19915;-91
2022/06/05 14:02:05;;;;;;;;;;;;;;;;;;6216558;22;19930;-92
2022/06/05 14:04:52;;;;;;;;;;;;;;;;;;6245279;22;19919;-92
2022/06/05 14:07:21;;;;;;;;;;;;;;;;;;6216959;22;19922;-93
2022/06/05 14:09:58;;;;;;;;;;;;;;;;;;6269563;22;19919;-92
2022/06/05 14:12:28;;;;;;;;;;;;;;;;;;6239861;22;19994;-93
2022/06/05 14:14:57;;;;;;;;;;;;;;;;;;6241904;22;19927;-93
2022/06/05 14:17:24;;;;;;;;;;;;;;;;;;6237860;22;19915;-92
2022/06/05 14:19:54;;;;;;;;;;;;;;;;;;6238227;22;19919;-92
2022/06/05 14:22:22;;;;;;;;;;;;;;;;;;6242586;22;19926;-91
2022/06/05 14:24:51;;;;;;;;;;;;;;;;;;6240534;22;19947;-92
2022/06/05 14:27:19;;;;;;;;;;;;;;;;;;6216168;22;20362;-93
2022/06/05 14:29:45;;;;;;;;;;;;;;;;;;6239013;22;20396;-93
2022/06/05 14:32:14;;;;;;;;;;;;;;;;;;6241915;22;19916;-92
2022/06/05 14:34:44;;;;;;;;;;;;;;;;;;6238448;22;19923;-92
2022/06/05 14:37:28;;;;;;;;;;;;;;;;;;6265228;22;19923;-93
2022/06/05 14:39:56;;;;;;;;;;;;;;;;;;6240244;22;19915;-91
2022/06/05 14:42:23;;;;;;;;;;;;;;;;;;6216403;22;19922;-91
2022/06/05 14:44:50;;;;;;;;;;;;;;;;;;6238433;22;20409;-91
2022/06/05 14:47:17;;;;;;;;;;;;;;;;;;6239459;22;20001;-92
2022/06/05 14:49:47;;;;;;;;;;;;;;;;;;6265163;22;19994;-92
2022/06/05 14:52:14;;;;;;;;;;;;;;;;;;6239658;22;20346;-92
2022/06/05 15:00:13;;;;;;;;;;;;;;;;;;6266626;22;20228;-91
2022/06/05 15:02:40;;;;;;;;;;;;;;;;;;6233447;23;19920;-92
2022/06/05 15:05:07;;;;;;;;;;;;;;;;;;6236292;22;19986;-91
2022/06/05 15:07:34;;;;;;;;;;;;;;;;;;6233222;23;19957;-91
2022/06/05 15:10:04;;;;;;;;;;;;;;;;;;6210180;23;19920;-91
2022/06/05 15:12:35;;;;;;;;;;;;;;;;;;6233481;23;19919;-91
2022/06/05 15:15:02;;;;;;;;;;;;;;;;;;6231005;23;19934;-92
2022/06/05 15:17:29;;;;;;;;;;;;;;;;;;6228946;23;19915;-92
2022/06/05 15:19:55;;;;;;;;;;;;;;;;;;6232953;22;19919;-91
2022/06/05 15:22:21;;;;;;;;;;;;;;;;;;6232198;23;19995;-93
2022/06/05 15:24:55;;;;;;;;;;;;;;;;;;6232490;23;20386;-92
2022/06/05 15:27:21;;;;;;;;;;;;;;;;;;6233336;23;19989;-92
2022/06/05 15:29:47;;;;;;;;;;;;;;;;;;6230322;23;19943;-92
2022/06/05 15:32:14;;;;;;;;;;;;;;;;;;6230887;23;19922;-92
2022/06/05 15:34:40;;;;;;;;;;;;;;;;;;6202699;23;20608;-92
2022/06/05 15:37:25;;;;;;;;;;;;;;;;;;6227933;23;19954;-92
2022/06/05 15:39:52;;;;;;;;;;;;;;;;;;6232797;23;19938;-92
2022/06/05 15:42:19;;;;;;;;;;;;;;;;;;6206706;23;19974;-91
2022/06/05 15:44:46;;;;;;;;;;;;;;;;;;6227254;23;20247;-92
2022/06/05 15:47:14;;;;;;;;;;;;;;;;;;6203874;23;20066;-91
2022/06/05 15:49:47;;;;;;;;;;;;;;;;;;6226538;23;19997;-93
2022/06/05 15:52:17;;;;;;;;;;;;;;;;;;6206325;23;20554;-93
2022/06/05 15:54:47;;;;;;;;;;;;;;;;;;6226404;23;19974;-92
2022/06/05 15:58:18;;;;;;;;;;;;;;;;;;6230382;23;20441;-93
2022/06/05 16:00:09;;;;;;;;;;;;;;;;;;6231554;23;19954;-92
2022/06/05 16:02:37;;;;;;;;;;;;;;;;;;6227195;23;19927;-93
2022/06/05 16:05:05;;;;;;;;;;;;;;;;;;6231575;23;19995;-92
2022/06/05 16:07:32;;;;;;;;;;;;;;;;;;6227832;23;19967;-91
2022/06/05 16:09:58;;;;;;;;;;;;;;;;;;6205870;23;19965;-92
2022/06/05 16:12:33;;;;;;;;;;;;;;;;;;6204286;23;20333;-93
2022/06/05 16:15:01;;;;;;;;;;;;;;;;;;6205196;23;19923;-93
2022/06/05 16:17:30;;;;;;;;;;;;;;;;;;6231878;23;19990;-92
2022/06/05 16:20:02;;;;;;;;;;;;;;;;;;6231887;23;19926;-93
2022/06/05 16:22:33;;;;;;;;;;;;;;;;;;6230140;23;20244;-92
2022/06/05 16:25:00;;;;;;;;;;;;;;;;;;6232300;23;19994;-93
2022/06/05 16:27:49;;;;;;;;;;;;;;;;;;6232109;23;19973;-91
2022/06/05 16:30:20;;;;;;;;;;;;;;;;;;6206527;23;19934;-90
2022/06/05 16:32:55;;;;;;;;;;;;;;;;;;6200830;23;20000;-91
2022/06/05 16:38:15;;;;;;;;;;;;;;;;;;6202494;23;19966;-92
2022/06/05 16:40:57;;;;;;;;;;;;;;;;;;6179737;23;19919;-92
2022/06/05 16:43:33;;;;;;;;;;;;;;;;;;6177592;23;19923;-93
2022/06/05 16:46:14;;;;;;;;;;;;;;;;;;6114159;23;19925;-92
2022/06/05 16:48:40;;;;;;;;;;;;;;;;;;6064384;23;20253;-92
2022/06/05 16:51:13;;;;;;;;;;;;;;;;;;6067490;23;19920;-93
2022/06/05 16:53:39;;;;;;;;;;;;;;;;;;6088428;23;20346;-94
2022/06/05 16:56:08;;;;;;;;;;;;;;;;;;6090724;23;20354;-94
2022/06/05 16:58:40;;;;;;;;;;;;;;;;;;6112091;23;19924;-92
2022/06/05 17:01:24;;;;;;;;;;;;;;;;;;6093879;23;19975;-93
2022/06/05 17:04:22;;;;;;;;;;;;;;;;;;6109216;23;19931;-92
2022/06/05 17:06:50;;;;;;;;;;;;;;;;;;6094685;23;20305;-92
2022/06/05 17:09:22;;;;;;;;;;;;;;;;;;6094949;23;19928;-92
2022/06/05 17:11:49;;;;;;;;;;;;;;;;;;6094716;23;20050;-92
2022/06/05 17:14:15;;;;;;;;;;;;;;;;;;6119058;23;19931;-91
2022/06/05 17:16:43;;;;;;;;;;;;;;;;;;6111891;23;20609;-92
2022/06/05 17:19:10;;;;;;;;;;;;;;;;;;6086352;23;19967;-93
2022/06/05 17:21:36;;;;;;;;;;;;;;;;;;6087185;23;19984;-93
2022/06/05 17:24:02;;;;;;;;;;;;;;;;;;6145417;23;20482;-93
2022/06/05 17:26:29;;;;;;;;;;;;;;;;;;6175655;23;19974;-92
2022/06/05 17:28:56;;;;;;;;;;;;;;;;;;6179904;23;19924;-92
2022/06/05 17:31:43;;;;;;;;;;;;;;;;;;6181376;23;19931;-92